createdAt,value
2022-12-18T00:01:30.251Z,-6.52
2022-12-18T00:03:58.012Z,-6.53
2022-12-18T00:06:28.275Z,-6.52
2022-12-18T00:08:57.628Z,-6.49
2022-12-18T00:11:28.866Z,-6.47
2022-12-18T00:13:58.748Z,-6.44
2022-12-18T00:16:28.339Z,-6.43
2022-12-18T00:18:57.645Z,-6.40
2022-12-18T00:21:25.313Z,-6.40
2022-12-18T00:23:53.691Z,-6.37
2022-12-18T00:26:23.096Z,-6.35
2022-12-18T00:28:52.949Z,-6.33
2022-12-18T00:31:23.161Z,-6.31
2022-12-18T00:33:53.962Z,-6.32
2022-12-18T00:36:24.929Z,-6.31
2022-12-18T00:38:52.733Z,-6.32
2022-12-18T00:41:34.604Z,-6.33
2022-12-18T00:44:04.054Z,-6.34
2022-12-18T00:46:31.827Z,-6.34
2022-12-18T00:48:59.575Z,-6.34
2022-12-18T00:51:27.650Z,-6.35
2022-12-18T00:53:55.803Z,-6.35
2022-12-18T00:56:23.448Z,-6.36
2022-12-18T00:58:51.811Z,-6.35
2022-12-18T01:01:21.682Z,-6.33
2022-12-18T01:03:49.808Z,-6.34
2022-12-18T01:06:18.444Z,-6.31
2022-12-18T01:08:46.654Z,-6.30
2022-12-18T01:11:17.277Z,-6.30
2022-12-18T01:13:45.593Z,-6.29
2022-12-18T01:16:13.707Z,-6.28
2022-12-18T01:18:42.871Z,-6.27
2022-12-18T01:21:12.364Z,-6.26
2022-12-18T01:23:40.665Z,-6.24
2022-12-18T01:26:10.427Z,-6.21
2022-12-18T01:28:38.341Z,-6.19
2022-12-18T01:31:15.289Z,-6.16
2022-12-18T01:33:44.500Z,-6.16
2022-12-18T01:36:17.567Z,-6.13
2022-12-18T01:38:45.777Z,-6.14
2022-12-18T01:41:14.069Z,-6.14
2022-12-18T01:43:46.868Z,-6.12
2022-12-18T01:46:14.888Z,-6.13
2022-12-18T01:48:44.499Z,-6.12
2022-12-18T01:51:13.100Z,-6.14
2022-12-18T01:53:43.446Z,-6.15
2022-12-18T01:56:15.392Z,-6.15
2022-12-18T01:58:50.700Z,-6.15
2022-12-18T02:01:19.240Z,-6.18
2022-12-18T02:03:48.286Z,-6.20
2022-12-18T02:06:21.062Z,-6.24
2022-12-18T02:09:03.651Z,-6.26
2022-12-18T02:11:42.156Z,-6.27
2022-12-18T02:14:20.312Z,-6.28
2022-12-18T02:16:54.940Z,-6.28
2022-12-18T02:19:49.387Z,-6.29
2022-12-18T02:22:28.388Z,-6.29
2022-12-18T02:25:07.413Z,-6.28
2022-12-18T02:27:40.033Z,-6.27
2022-12-18T02:30:09.316Z,-6.28
2022-12-18T02:32:41.847Z,-6.28
2022-12-18T02:35:14.718Z,-6.31
2022-12-18T02:37:45.320Z,-6.32
2022-12-18T02:40:15.826Z,-6.31
2022-12-18T02:42:44.961Z,-6.30
2022-12-18T02:45:13.068Z,-6.28
2022-12-18T02:47:44.116Z,-6.26
2022-12-18T02:50:20.062Z,-6.25
2022-12-18T02:52:54.897Z,-6.23
2022-12-18T02:55:33.563Z,-6.21
2022-12-18T02:58:07.698Z,-6.24
2022-12-18T03:00:40.415Z,-6.24
2022-12-18T03:03:14.475Z,-6.26
2022-12-18T03:05:46.119Z,-6.26
2022-12-18T03:08:18.982Z,-6.29
2022-12-18T03:10:53.279Z,-6.30
2022-12-18T03:13:28.446Z,-6.32
2022-12-18T03:15:58.845Z,-6.33
2022-12-18T03:18:31.936Z,-6.35
2022-12-18T03:21:05.659Z,-6.37
2022-12-18T03:23:41.717Z,-6.37
2022-12-18T03:26:12.503Z,-6.36
2022-12-18T03:28:46.152Z,-6.39
2022-12-18T03:31:16.007Z,-6.41
2022-12-18T03:33:48.375Z,-6.40
2022-12-18T03:36:17.365Z,-6.39
2022-12-18T03:38:45.060Z,-6.39
2022-12-18T03:41:18.752Z,-6.42
2022-12-18T03:43:53.948Z,-6.44
2022-12-18T03:46:29.450Z,-6.44
2022-12-18T03:49:03.539Z,-6.47
2022-12-18T03:51:41.295Z,-6.49
2022-12-18T03:54:11.964Z,-6.52
2022-12-18T03:56:44.015Z,-6.51
2022-12-18T03:59:14.956Z,-6.52
2022-12-18T04:01:45.915Z,-6.53
2022-12-18T04:04:16.276Z,-6.53
2022-12-18T04:06:45.707Z,-6.53
2022-12-18T04:09:13.829Z,-6.57
2022-12-18T04:11:43.152Z,-6.58
2022-12-18T04:14:14.376Z,-6.61
2022-12-18T04:16:46.537Z,-6.63
2022-12-18T04:19:14.487Z,-6.65
2022-12-18T04:21:42.166Z,-6.66
2022-12-18T04:24:09.882Z,-6.68
2022-12-18T04:26:37.464Z,-6.70
2022-12-18T04:29:05.164Z,-6.72
2022-12-18T04:31:32.909Z,-6.74
2022-12-18T04:34:02.918Z,-6.74
2022-12-18T04:36:30.679Z,-6.76
2022-12-18T04:38:58.309Z,-6.74
2022-12-18T04:41:25.936Z,-6.75
2022-12-18T04:43:53.497Z,-6.76
2022-12-18T04:46:21.124Z,-6.76
2022-12-18T04:48:49.010Z,-6.77
2022-12-18T04:51:20.925Z,-6.78
2022-12-18T04:53:54.324Z,-6.79
2022-12-18T04:56:21.994Z,-6.81
2022-12-18T04:58:49.616Z,-6.82
2022-12-18T05:01:19.531Z,-6.83
2022-12-18T05:03:47.279Z,-6.85
2022-12-18T05:06:15.004Z,-6.88
2022-12-18T05:08:45.018Z,-6.89
2022-12-18T05:11:16.569Z,-6.90
2022-12-18T05:13:45.297Z,-6.92
2022-12-18T05:16:13.009Z,-6.94
2022-12-18T05:18:40.750Z,-6.95
2022-12-18T05:21:08.343Z,-6.97
2022-12-18T05:23:35.908Z,-6.96
2022-12-18T05:26:08.607Z,-6.97
2022-12-18T05:28:38.069Z,-7.00
2022-12-18T05:31:06.855Z,-7.02
2022-12-18T05:33:36.724Z,-7.03
2022-12-18T05:36:06.804Z,-7.03
2022-12-18T05:38:36.215Z,-7.05
2022-12-18T05:41:06.279Z,-7.07
2022-12-18T05:43:36.179Z,-7.08
2022-12-18T05:46:06.343Z,-7.10
2022-12-18T05:48:33.973Z,-7.15
2022-12-18T05:51:07.066Z,-7.13
2022-12-18T05:53:34.857Z,-7.14
2022-12-18T05:56:03.545Z,-7.12
2022-12-18T05:58:33.573Z,-7.13
2022-12-18T06:01:09.197Z,-7.12
2022-12-18T06:03:36.844Z,-7.11
2022-12-18T06:06:04.988Z,-7.10
2022-12-18T06:08:32.740Z,-7.10
2022-12-18T06:11:00.292Z,-7.09
2022-12-18T06:13:27.866Z,-7.08
2022-12-18T06:15:56.768Z,-7.08
2022-12-18T06:18:24.619Z,-7.08
2022-12-18T06:20:57.612Z,-7.06
2022-12-18T06:23:25.341Z,-7.05
2022-12-18T06:25:53.380Z,-7.06
2022-12-18T06:28:21.107Z,-7.09
2022-12-18T06:30:50.203Z,-7.09
2022-12-18T06:33:19.147Z,-7.07
2022-12-18T06:35:46.822Z,-7.05
2022-12-18T06:38:14.488Z,-7.05
2022-12-18T06:40:42.084Z,-7.06
2022-12-18T06:43:09.828Z,-7.06
2022-12-18T06:45:37.461Z,-7.08
2022-12-18T06:48:05.236Z,-7.07
2022-12-18T06:50:34.527Z,-7.05
2022-12-18T06:53:02.072Z,-7.03
2022-12-18T06:55:30.172Z,-7.04
2022-12-18T06:57:58.517Z,-7.04
2022-12-18T07:00:26.073Z,-7.06
2022-12-18T07:02:53.666Z,-7.07
2022-12-18T07:05:21.516Z,-7.08
2022-12-18T07:07:50.404Z,-7.10
2022-12-18T07:10:18.271Z,-7.10
2022-12-18T07:12:45.983Z,-7.13
2022-12-18T07:15:13.852Z,-7.13
2022-12-18T07:17:41.625Z,-7.14
2022-12-18T07:20:10.712Z,-7.13
2022-12-18T07:22:38.681Z,-7.14
2022-12-18T07:25:09.525Z,-7.15
2022-12-18T07:27:37.084Z,-7.16
2022-12-18T07:30:05.858Z,-7.17
2022-12-18T07:32:33.932Z,-7.16
2022-12-18T07:35:01.537Z,-7.13
2022-12-18T07:37:29.116Z,-7.12
2022-12-18T07:39:56.759Z,-7.10
2022-12-18T07:42:35.738Z,-7.05
2022-12-18T07:45:04.017Z,-7.03
2022-12-18T07:47:36.910Z,-6.99
2022-12-18T07:50:05.132Z,-6.95
2022-12-18T07:52:32.781Z,-6.93
2022-12-18T07:55:01.052Z,-6.87
2022-12-18T08:00:18.212Z,-6.79
2022-12-18T08:02:45.864Z,-6.74
2022-12-18T08:05:14.253Z,-6.69
2022-12-18T08:07:41.896Z,-6.62
2022-12-18T08:10:10.297Z,-6.55
2022-12-18T08:12:39.596Z,-6.49
2022-12-18T08:15:08.415Z,-6.38
2022-12-18T08:17:36.025Z,-6.32
2022-12-18T08:20:03.852Z,-6.26
2022-12-18T08:22:31.757Z,-6.19
2022-12-18T08:24:59.312Z,-6.11
2022-12-18T08:27:29.715Z,-6.07
2022-12-18T08:29:59.584Z,-6.04
2022-12-18T08:32:28.570Z,-6.00
2022-12-18T08:34:56.338Z,-5.93
2022-12-18T08:37:23.880Z,-5.86
2022-12-18T08:39:51.468Z,-5.82
2022-12-18T08:42:36.443Z,-5.77
2022-12-18T08:45:05.928Z,-5.76
2022-12-18T08:47:33.509Z,-5.71
2022-12-18T08:50:01.102Z,-5.69
2022-12-18T08:52:29.196Z,-5.65
2022-12-18T08:54:56.772Z,-5.57
2022-12-18T08:57:24.336Z,-5.54
2022-12-18T08:59:52.411Z,-5.47
2022-12-18T09:02:21.594Z,-5.39
2022-12-18T09:04:55.457Z,-5.27
2022-12-18T09:07:24.839Z,-5.17
2022-12-18T09:09:52.390Z,-5.06
2022-12-18T09:12:20.549Z,-5.09
2022-12-18T09:14:48.865Z,-5.10
2022-12-18T09:17:16.602Z,-5.00
2022-12-18T09:19:45.621Z,-4.92
2022-12-18T09:22:13.649Z,-4.86
2022-12-18T09:24:41.596Z,-4.80
2022-12-18T09:27:09.245Z,-4.78
2022-12-18T09:29:36.858Z,-4.69
2022-12-18T09:32:04.499Z,-4.59
2022-12-18T09:34:32.110Z,-4.50
2022-12-18T09:37:01.141Z,-4.51
2022-12-18T09:39:28.732Z,-4.42
2022-12-18T09:41:59.809Z,-4.37
2022-12-18T09:44:30.681Z,-4.28
2022-12-18T09:47:14.717Z,-4.14
2022-12-18T09:49:45.217Z,-4.04
2022-12-18T09:52:20.983Z,-3.89
2022-12-18T09:54:53.858Z,-3.82
2022-12-18T09:57:23.565Z,-3.79
2022-12-18T09:59:57.029Z,-3.70
2022-12-18T10:02:27.014Z,-3.60
2022-12-18T10:05:06.889Z,-3.50
2022-12-18T10:07:48.788Z,-3.26
2022-12-18T10:10:28.625Z,-3.02
2022-12-18T10:13:05.091Z,-2.67
2022-12-18T10:15:38.378Z,-2.34
2022-12-18T10:18:22.208Z,-2.04
2022-12-18T10:20:53.579Z,-1.83
2022-12-18T10:23:29.576Z,-1.64
2022-12-18T10:26:02.888Z,-1.59
2022-12-18T10:28:32.631Z,-1.58
2022-12-18T10:31:00.704Z,-1.45
2022-12-18T10:33:32.868Z,-1.42
2022-12-18T10:36:01.060Z,-1.35
2022-12-18T10:38:31.205Z,-1.14
2022-12-18T10:41:00.968Z,-1.18
2022-12-18T10:43:30.071Z,-1.25
2022-12-18T10:46:19.367Z,-1.17
2022-12-18T10:48:54.696Z,-1.02
2022-12-18T10:51:25.120Z,-0.96
2022-12-18T10:54:01.322Z,-0.94
2022-12-18T10:56:32.543Z,-0.91
2022-12-18T10:59:02.771Z,-0.95
2022-12-18T11:01:48.216Z,-0.94
2022-12-18T11:04:21.017Z,-0.74
2022-12-18T11:06:57.681Z,-0.71
2022-12-18T11:09:28.413Z,-0.69
2022-12-18T11:11:58.002Z,-0.72
2022-12-18T11:14:28.473Z,-0.74
2022-12-18T11:17:24.302Z,-0.66
2022-12-18T11:19:45.998Z,-0.70
2022-12-18T11:22:22.742Z,-0.78
2022-12-18T11:25:29.979Z,-0.82
2022-12-18T11:27:51.349Z,-0.90
2022-12-18T11:30:25.164Z,-0.94
2022-12-18T11:32:57.979Z,-1.02
2022-12-18T11:35:36.684Z,-1.16
2022-12-18T11:38:12.940Z,-1.37
2022-12-18T11:40:46.217Z,-1.32
2022-12-18T11:43:19.311Z,-1.32
2022-12-18T11:45:54.629Z,-1.26
2022-12-18T11:48:27.683Z,-1.15
2022-12-18T11:50:57.414Z,-0.97
2022-12-18T11:53:26.215Z,-0.86
2022-12-18T11:56:14.465Z,-0.70
2022-12-18T11:58:49.042Z,-0.61
2022-12-18T12:01:43.693Z,-0.60
2022-12-18T12:04:36.409Z,-0.66
2022-12-18T12:07:18.298Z,-0.68
2022-12-18T12:09:55.281Z,-0.69
2022-12-18T12:12:48.559Z,-0.73
2022-12-18T12:15:28.533Z,-0.81
2022-12-18T12:18:05.783Z,-0.85
2022-12-18T12:20:49.844Z,-0.90
2022-12-18T12:23:27.860Z,-0.96
2022-12-18T12:26:01.769Z,-0.97
2022-12-18T12:28:52.901Z,-1.01
2022-12-18T12:31:29.259Z,-1.14
2022-12-18T12:34:07.478Z,-1.10
2022-12-18T12:36:44.408Z,-1.08
2022-12-18T12:39:16.377Z,-1.11
2022-12-18T12:42:04.614Z,-1.15
2022-12-18T12:44:39.779Z,-1.20
2022-12-18T12:47:16.598Z,-1.25
2022-12-18T12:49:49.967Z,-1.23
2022-12-18T12:52:27.689Z,-1.30
2022-12-18T12:54:56.239Z,-1.36
2022-12-18T12:57:31.492Z,-1.47
2022-12-18T13:00:05.261Z,-1.43
2022-12-18T13:02:37.757Z,-1.41
2022-12-18T13:05:14.118Z,-1.31
2022-12-18T13:07:47.857Z,-1.28
2022-12-18T13:10:34.203Z,-1.17
2022-12-18T13:13:03.601Z,-1.15
2022-12-18T13:15:40.636Z,-1.15
2022-12-18T13:18:20.575Z,-1.21
2022-12-18T13:20:55.311Z,-1.23
2022-12-18T13:23:33.665Z,-1.30
2022-12-18T13:26:02.152Z,-1.37
2022-12-18T13:28:52.916Z,-1.49
2022-12-18T13:31:53.889Z,-1.58
2022-12-18T13:34:27.403Z,-1.74
2022-12-18T13:36:58.294Z,-1.79
2022-12-18T13:39:35.123Z,-1.90
2022-12-18T13:43:06.297Z,-2.01
2022-12-18T13:45:40.907Z,-2.19
2022-12-18T13:48:18.597Z,-2.30
2022-12-18T13:50:57.317Z,-2.45
2022-12-18T13:53:29.540Z,-2.60
2022-12-18T13:55:57.929Z,-2.78
2022-12-18T13:58:25.860Z,-2.89
2022-12-18T14:00:53.504Z,-3.00
2022-12-18T14:03:24.673Z,-3.13
2022-12-18T14:06:01.773Z,-3.26
2022-12-18T14:08:35.153Z,-3.38
2022-12-18T14:11:05.575Z,-3.45
2022-12-18T14:13:35.969Z,-3.55
2022-12-18T14:16:06.313Z,-3.60
2022-12-18T14:18:44.962Z,-3.68
2022-12-18T14:21:22.968Z,-3.76
2022-12-18T14:23:50.993Z,-3.88
2022-12-18T14:26:25.451Z,-3.94
2022-12-18T14:28:54.800Z,-4.03
2022-12-18T14:31:24.414Z,-4.09
2022-12-18T14:33:52.746Z,-4.13
2022-12-18T14:36:23.477Z,-4.17
2022-12-18T14:38:54.580Z,-4.24
2022-12-18T14:41:23.478Z,-4.24
2022-12-18T14:43:53.185Z,-4.24
2022-12-18T14:46:32.120Z,-4.24
2022-12-18T14:49:00.309Z,-4.24
2022-12-18T14:51:32.828Z,-4.24
2022-12-18T14:54:02.356Z,-4.24
2022-12-18T14:56:32.005Z,-4.24
2022-12-18T14:59:02.200Z,-4.24
2022-12-18T15:01:33.736Z,-4.24
2022-12-18T15:04:02.813Z,-4.24
2022-12-18T15:06:37.152Z,-4.24
2022-12-18T15:09:07.562Z,-4.24
2022-12-18T15:11:47.493Z,-4.24
2022-12-18T15:14:26.733Z,-141.22
2022-12-18T15:16:56.528Z,-4.24
2022-12-18T15:19:30.547Z,-4.24
2022-12-18T15:22:05.909Z,-4.24
2022-12-18T15:24:34.974Z,-4.24
2022-12-18T15:27:03.152Z,-4.24
2022-12-18T15:29:30.786Z,-4.24
2022-12-18T15:32:04.174Z,-141.22
2022-12-18T15:34:32.236Z,-4.24
2022-12-18T15:37:01.532Z,-141.22
2022-12-18T15:39:29.272Z,-4.24
2022-12-18T15:42:14.491Z,-141.22
2022-12-18T15:44:42.058Z,-4.24
2022-12-18T15:47:14.595Z,-4.24
2022-12-18T15:49:42.317Z,-4.24
2022-12-18T15:52:15.212Z,-4.24
2022-12-18T15:55:00.463Z,-4.24
2022-12-18T15:57:28.509Z,-141.22
2022-12-18T15:59:58.893Z,-4.24
2022-12-18T16:02:27.196Z,-141.22
2022-12-18T16:04:55.438Z,-4.24
2022-12-18T16:07:28.197Z,-141.22
2022-12-18T16:09:58.885Z,-4.24
2022-12-18T16:12:28.300Z,-4.24
2022-12-18T16:14:55.997Z,-4.24
2022-12-18T16:17:23.587Z,-141.22
2022-12-18T16:19:51.285Z,-141.22
2022-12-18T16:22:23.377Z,-141.22
2022-12-18T16:24:53.319Z,-4.24
2022-12-18T16:27:21.508Z,-4.24
2022-12-18T16:29:49.101Z,-4.24
2022-12-18T16:32:18.649Z,-141.22
2022-12-18T16:34:47.356Z,-4.24
2022-12-18T16:37:16.574Z,-4.24
2022-12-18T16:39:44.969Z,-141.22
2022-12-18T16:42:17.800Z,-4.24
2022-12-18T16:44:46.320Z,-4.24
2022-12-18T16:47:15.324Z,-4.24
2022-12-18T16:49:43.425Z,-141.22
2022-12-18T16:52:11.024Z,-4.24
2022-12-18T16:54:38.682Z,-4.24
2022-12-18T16:57:06.370Z,-4.24
2022-12-18T16:59:35.476Z,-4.24
2022-12-18T17:02:07.234Z,-4.24
2022-12-18T17:04:34.921Z,-4.24
2022-12-18T17:07:04.549Z,-4.24
2022-12-18T17:09:32.147Z,-4.24
2022-12-18T17:12:03.980Z,-4.24
2022-12-18T17:14:33.763Z,-4.24
2022-12-18T17:19:50.994Z,-141.22
2022-12-18T17:22:18.618Z,-141.22
2022-12-18T17:24:47.301Z,-4.24
2022-12-18T17:27:14.899Z,-4.85
2022-12-18T17:29:47.415Z,-4.82
2022-12-18T17:32:17.904Z,-4.81
2022-12-18T17:34:46.044Z,-4.81
2022-12-18T17:37:13.732Z,-4.72
2022-12-18T17:39:41.968Z,-4.68
2022-12-18T17:42:10.894Z,-4.68
2022-12-18T17:44:43.404Z,-4.58
2022-12-18T17:47:12.876Z,-4.55
2022-12-18T17:49:41.929Z,-4.55
2022-12-18T17:52:09.620Z,-4.48
2022-12-18T17:54:39.572Z,-4.44
2022-12-18T17:57:07.337Z,-4.40
2022-12-18T17:59:35.009Z,-4.36
2022-12-18T18:02:02.783Z,-4.34
2022-12-18T18:04:30.526Z,-4.33
2022-12-18T18:06:59.466Z,-4.32
2022-12-18T18:09:27.379Z,-4.30
2022-12-18T18:12:12.595Z,-4.29
2022-12-18T18:14:40.225Z,-4.28
2022-12-18T18:17:08.168Z,-4.29
2022-12-18T18:19:35.844Z,-4.27
2022-12-18T18:22:04.911Z,-4.27
2022-12-18T18:24:34.493Z,-4.27
2022-12-18T18:27:02.187Z,-4.27
2022-12-18T18:29:31.229Z,-4.25
2022-12-18T18:31:59.508Z,-4.25
2022-12-18T18:34:28.944Z,-4.25
2022-12-18T18:36:56.657Z,-4.28
2022-12-18T18:39:25.988Z,-4.24
2022-12-18T18:41:53.645Z,-4.25
2022-12-18T18:44:26.179Z,-4.27
2022-12-18T18:46:55.107Z,-4.25
2022-12-18T18:49:24.090Z,-4.27
2022-12-18T18:51:51.981Z,-4.25
2022-12-18T18:54:19.546Z,-4.27
2022-12-18T18:57:19.275Z,-4.24
2022-12-18T18:59:36.963Z,-4.22
2022-12-18T19:02:05.183Z,-4.23
2022-12-18T19:04:33.590Z,-4.28
2022-12-18T19:07:01.451Z,-4.22
2022-12-18T19:09:29.383Z,-4.20
2022-12-18T19:12:16.635Z,-4.20
2022-12-18T19:14:44.588Z,-4.13
2022-12-18T19:17:12.222Z,-4.12
2022-12-18T19:19:40.107Z,-4.09
2022-12-18T19:22:07.921Z,-4.09
2022-12-18T19:24:36.554Z,-4.09
2022-12-18T19:27:05.645Z,-4.09
2022-12-18T19:29:33.218Z,-4.09
2022-12-18T19:32:01.048Z,-3.93
2022-12-18T19:34:28.714Z,-3.93
2022-12-18T19:36:59.731Z,-3.89
2022-12-18T19:39:27.804Z,-3.89
2022-12-18T19:41:55.422Z,-3.84
2022-12-18T19:44:24.353Z,-3.84
2022-12-18T19:46:52.569Z,-3.84
2022-12-18T19:49:20.184Z,-3.74
2022-12-18T19:51:50.291Z,-3.74
2022-12-18T19:54:18.554Z,-3.74
2022-12-18T19:56:47.260Z,-3.65
2022-12-18T19:59:15.581Z,-3.62
2022-12-18T20:01:44.574Z,-3.60
2022-12-18T20:04:12.293Z,-3.60
2022-12-18T20:06:49.203Z,-3.60
2022-12-18T20:09:17.509Z,-3.55
2022-12-18T20:11:45.869Z,-3.55
2022-12-18T20:14:16.114Z,-3.53
2022-12-18T20:16:53.425Z,-3.50
2022-12-18T20:19:22.174Z,-3.49
2022-12-18T20:21:50.253Z,-3.47
2022-12-18T20:24:17.928Z,-3.47
2022-12-18T20:26:45.563Z,-3.47
2022-12-18T20:29:13.136Z,-3.47
2022-12-18T20:31:41.583Z,-3.47
2022-12-18T20:34:10.564Z,-141.22
2022-12-18T20:36:41.074Z,-3.47
2022-12-18T20:39:12.147Z,-3.47
2022-12-18T20:41:39.974Z,-3.47
2022-12-18T20:44:10.281Z,-3.47
2022-12-18T20:46:50.116Z,-3.47
2022-12-18T20:49:19.179Z,-3.47
2022-12-18T20:51:47.033Z,-3.47
2022-12-18T20:54:14.620Z,-141.22
2022-12-18T20:56:42.618Z,-3.47
2022-12-18T20:59:10.594Z,-141.22
2022-12-18T21:01:40.260Z,-3.47
2022-12-18T21:04:17.408Z,-141.22
2022-12-18T21:06:52.381Z,-141.22
2022-12-18T21:09:22.167Z,-3.47
2022-12-18T21:12:08.096Z,-3.47
2022-12-18T21:14:38.549Z,-3.47
2022-12-18T21:17:06.486Z,-3.47
2022-12-18T21:19:34.109Z,-141.22
2022-12-18T21:22:03.330Z,-3.47
2022-12-18T21:24:32.804Z,-3.47
2022-12-18T21:27:00.679Z,-3.47
2022-12-18T21:29:28.729Z,-141.22
2022-12-18T21:31:56.660Z,-3.47
2022-12-18T21:34:26.559Z,-141.22
2022-12-18T21:36:55.217Z,-3.47
2022-12-18T21:39:24.961Z,-3.47
2022-12-18T21:42:10.498Z,-3.47
2022-12-18T21:44:41.986Z,-141.22
2022-12-18T21:47:21.893Z,-141.22
2022-12-18T21:49:51.547Z,-3.47
2022-12-18T21:52:19.248Z,-3.47
2022-12-18T21:54:48.270Z,-3.47
2022-12-18T21:57:15.900Z,-141.22
2022-12-18T21:59:44.187Z,-3.47
2022-12-18T22:02:14.079Z,-141.22
2022-12-18T22:04:43.036Z,-141.22
2022-12-18T22:07:11.657Z,-141.22
2022-12-18T22:09:39.605Z,-141.22
2022-12-18T22:12:09.904Z,-141.22
2022-12-18T22:14:37.541Z,-141.22
2022-12-18T22:17:05.181Z,-141.22
2022-12-18T22:19:35.696Z,-141.22
2022-12-18T22:22:08.745Z,-141.22
2022-12-18T22:24:36.295Z,-141.22
2022-12-18T22:27:03.931Z,-141.22
2022-12-18T22:29:50.561Z,-141.22
2022-12-18T22:32:30.911Z,-141.22
2022-12-18T22:35:05.806Z,-141.22
2022-12-18T22:37:35.102Z,-141.22
2022-12-18T22:40:03.233Z,-141.22
2022-12-18T22:42:31.620Z,-141.22
2022-12-18T22:45:00.796Z,-141.22
2022-12-18T22:47:30.364Z,-141.22
2022-12-18T22:49:58.856Z,-141.22
2022-12-18T22:52:26.460Z,-141.22
2022-12-18T22:54:54.532Z,-141.22
2022-12-18T22:57:23.210Z,-141.22
2022-12-18T22:59:51.209Z,-141.22
2022-12-18T23:02:20.698Z,-141.22
2022-12-18T23:04:48.504Z,-141.22
2022-12-18T23:07:19.721Z,-141.22
2022-12-18T23:09:48.348Z,-141.22
2022-12-18T23:12:18.414Z,-141.22
2022-12-18T23:14:47.058Z,-141.22
2022-12-18T23:17:14.877Z,-141.22
2022-12-18T23:19:48.847Z,-141.22
2022-12-18T23:22:16.906Z,-141.22
2022-12-18T23:24:44.617Z,-141.22
2022-12-18T23:27:12.369Z,-141.22
2022-12-18T23:29:40.920Z,-141.22
2022-12-18T23:32:09.166Z,-141.22
2022-12-18T23:34:36.727Z,-141.22
2022-12-18T23:37:05.656Z,-141.22
2022-12-18T23:39:33.275Z,-141.22
2022-12-18T23:42:01.494Z,-141.22
2022-12-18T23:44:29.140Z,-141.22
2022-12-18T23:46:57.296Z,-141.22
2022-12-18T23:49:24.953Z,-141.22
2022-12-18T23:51:54.744Z,-141.22
2022-12-18T23:54:32.862Z,-141.22
2022-12-18T23:57:01.558Z,-141.22
2022-12-18T23:59:29.155Z,-141.22
